Aeroporto :
LOGIN :

Iscrizione | Disclaimer

   EN    FR    IT 

 










Sommario :    VFR   VFR Marginale   IFR   IFR Intensivo   IFR Molto Intensivo
Visibilità : 
Base nubi : 
>= 8 km
>= 3000ft
5 / 8 km
1000 / 3000 ft
1500m / 5 km
500 / 1000 ft
800 / 1500m
200 / 500 ft
< 800m
< 200 ft
Simboli :   Temporali  Nebbia  Neve Forte  Precipitazioni Forti  Vento > 20 kt
SIGMETs :   Varie  Temporali  Ghiacco  Turbolenza  Onda orograficha  Ceneri Vulcaniche







- Altitudine del aeroporto : 174 ft
- Codice IATA : RYG


ENRY - Moss , Rygge

ULTIMO METAR :
  • 180520Z AUTO 18006KT 9999NDV -DZ SCT009/// OVC024/// 14/12 Q1016

METARs OBSOLETI :
  • 180450Z AUTO 18009KT 9999NDV BKN008/// OVC026/// 14/12 Q1016
  • 180420Z AUTO 19008KT 9999NDV BKN010/// OVC029/// 14/12 Q1016
  • 180350Z AUTO 19009KT 9999NDV FEW011/// SCT033/// 14/12 Q1016
  • 180320Z AUTO 19007KT 160V230 9999NDV FEW008/// 13/12 Q1016
  • 180250Z AUTO 19009KT 9999NDV NCD 13/12 Q1016

TAF TAF ENRY
Valido dal 18 a 00 ore il 19 a 00 ore UTC


1800/1824 19010KT 9999 SCT010
TEMPO 1802/1804 BKN010
TEMPO 1804/1810 4000 DZ BR BKN004
TEMPO 1811/1819 20018G28KT
PROB30
TEMPO 1812/1818 BKN010
Nessun NOTAM noto per questo aeroporto.



MetMap, La meteo Aeronautica in un colpo d'occhio ! - Copyright ORBIFLY Dicembre 2007 - Disclaimer

ORBIFLY MET'MAP TEAM :

Programmazione e sviluppo : Alexandra Zaïnal
Concezione e sviluppo : Baudouin d'Aumeries
Co-Programmazione e sviluppo : Marc-Olivier Méhu
Supporto tecnico e logistico : Manuel Goepfert
Aiuto per la traduzione : Arnaldo La Scala

Contatto : metmap@orbifly.com




FONTI E CREDITI :

   NOAA